createdAt,value
2018-06-20T00:00:15.920Z,95261.14
2018-06-20T00:02:45.071Z,95268.44
2018-06-20T00:05:13.832Z,95266.86
2018-06-20T00:07:42.589Z,95263.42
2018-06-20T00:10:11.294Z,95261.66
2018-06-20T00:12:40.131Z,95261.48
2018-06-20T00:15:08.950Z,95261.20
2018-06-20T00:17:37.681Z,95269.63
2018-06-20T00:20:06.395Z,95265.13
2018-06-20T00:22:35.128Z,95264.31
2018-06-20T00:25:04.325Z,95269.11
2018-06-20T00:27:33.082Z,95267.89
2018-06-20T00:30:01.846Z,95272.52
2018-06-20T00:32:30.586Z,95269.63
2018-06-20T00:34:59.427Z,95272.80
2018-06-20T00:37:28.148Z,95276.50
2018-06-20T00:39:56.902Z,95274.63
2018-06-20T00:42:25.628Z,95275.75
2018-06-20T00:44:54.374Z,95275.00
2018-06-20T00:47:23.122Z,95274.53
2018-06-20T00:49:51.895Z,95271.88
2018-06-20T00:52:20.669Z,95271.30
2018-06-20T00:54:49.395Z,95272.26
2018-06-20T00:57:18.144Z,95268.02
2018-06-20T00:59:46.914Z,95264.76
2018-06-20T01:02:15.722Z,95267.06
2018-06-20T01:04:44.491Z,95262.48
2018-06-20T01:07:13.234Z,95262.77
2018-06-20T01:09:41.970Z,95261.15
2018-06-20T01:12:10.752Z,95262.65
2018-06-20T01:14:39.488Z,95270.03
2018-06-20T01:17:08.251Z,95264.12
2018-06-20T01:19:37.042Z,95270.23
2018-06-20T01:22:05.854Z,95271.34
2018-06-20T01:24:34.649Z,95270.81
2018-06-20T01:27:03.375Z,95271.62
2018-06-20T01:29:32.126Z,95267.87
2018-06-20T01:32:00.976Z,95272.14
2018-06-20T01:34:29.731Z,95269.95
2018-06-20T01:36:58.487Z,95271.50
2018-06-20T01:39:27.274Z,95277.91
2018-06-20T01:41:56.031Z,95274.68
2018-06-20T01:44:24.827Z,95274.59
2018-06-20T01:46:53.857Z,95273.66
2018-06-20T01:49:22.601Z,95266.94
2018-06-20T01:51:51.361Z,95277.61
2018-06-20T01:54:20.094Z,95267.63
2018-06-20T01:56:48.873Z,95273.94
2018-06-20T01:59:17.613Z,95275.48
2018-06-20T02:01:46.343Z,95275.94
2018-06-20T02:04:15.062Z,95273.58
2018-06-20T02:06:43.861Z,95274.39
2018-06-20T02:09:12.626Z,95276.98
2018-06-20T02:11:42.434Z,95282.28
2018-06-20T02:14:11.219Z,95284.48
2018-06-20T02:16:39.970Z,95284.58
2018-06-20T02:19:08.794Z,95292.75
2018-06-20T02:21:37.582Z,95287.37
2018-06-20T02:24:06.347Z,95286.76
2018-06-20T02:26:35.222Z,95289.70
2018-06-20T02:29:04.007Z,95293.05
2018-06-20T02:31:32.778Z,95302.30
2018-06-20T02:34:01.586Z,95306.37
2018-06-20T02:36:32.298Z,95304.07
2018-06-20T02:39:02.696Z,95311.52
2018-06-20T02:41:31.450Z,95307.05
2018-06-20T02:44:00.211Z,95308.34
2018-06-20T02:46:28.968Z,95309.38
2018-06-20T02:48:57.772Z,95308.22
2018-06-20T02:51:26.510Z,95320.91
2018-06-20T02:53:55.288Z,95323.05
2018-06-20T02:56:24.347Z,95320.23
2018-06-20T02:58:53.211Z,95322.30
2018-06-20T03:01:21.947Z,95327.28
2018-06-20T03:03:50.719Z,95327.52
2018-06-20T03:06:19.470Z,95334.59
2018-06-20T03:08:53.535Z,95335.83
2018-06-20T03:11:22.296Z,95336.17
2018-06-20T03:13:51.031Z,95342.52
2018-06-20T03:16:20.745Z,95341.93
2018-06-20T03:18:49.519Z,95339.84
2018-06-20T03:21:18.540Z,95354.95
2018-06-20T03:23:47.274Z,95359.82
2018-06-20T03:26:16.009Z,95363.14
2018-06-20T03:28:44.777Z,95364.25
2018-06-20T03:31:13.667Z,95361.38
2018-06-20T03:33:42.431Z,95366.67
2018-06-20T03:36:11.211Z,95364.16
2018-06-20T03:38:39.946Z,95373.47
2018-06-20T03:41:09.482Z,95374.86
2018-06-20T03:43:38.283Z,95379.75
2018-06-20T03:46:07.043Z,95381.66
2018-06-20T03:48:35.778Z,95386.97
2018-06-20T03:51:04.536Z,95388.06
2018-06-20T03:53:33.264Z,95391.34
2018-06-20T03:56:02.034Z,95387.95
2018-06-20T03:58:30.791Z,95385.08
2018-06-20T04:00:59.625Z,95379.77
2018-06-20T04:03:28.389Z,95384.56
2018-06-20T04:05:57.138Z,95384.30
2018-06-20T04:08:25.927Z,95384.73
2018-06-20T04:10:54.686Z,95389.16
2018-06-20T04:13:23.418Z,95382.11
2018-06-20T04:15:52.258Z,95383.20
2018-06-20T04:18:21.077Z,95383.36
2018-06-20T04:20:49.958Z,95382.45
2018-06-20T04:23:25.192Z,95380.27
2018-06-20T04:25:53.931Z,95382.99
2018-06-20T04:28:22.817Z,95383.48
2018-06-20T04:30:51.635Z,95381.06
2018-06-20T04:33:20.364Z,95387.14
2018-06-20T04:35:49.841Z,95387.63
2018-06-20T04:38:18.622Z,95385.17
2018-06-20T04:40:47.539Z,95388.88
2018-06-20T04:43:16.305Z,95390.70
2018-06-20T04:45:45.058Z,95390.54
2018-06-20T04:48:13.770Z,95396.59
2018-06-20T04:50:42.563Z,95397.69
2018-06-20T04:53:11.308Z,95393.59
2018-06-20T04:55:40.209Z,95393.50
2018-06-20T04:58:09.144Z,95398.95
2018-06-20T05:00:37.919Z,95397.45
2018-06-20T05:03:06.654Z,95403.16
2018-06-20T05:05:35.427Z,95403.11
2018-06-20T05:08:04.348Z,95409.58
2018-06-20T05:10:33.143Z,95417.03
2018-06-20T05:13:01.890Z,95407.44
2018-06-20T05:15:31.152Z,95404.17
2018-06-20T05:17:59.962Z,95409.98
2018-06-20T05:20:28.734Z,95408.20
2018-06-20T05:22:57.493Z,95415.92
2018-06-20T05:25:26.309Z,95417.17
2018-06-20T05:27:55.208Z,95423.59
2018-06-20T05:30:23.954Z,95417.16
2018-06-20T05:32:52.761Z,95424.28
2018-06-20T05:35:21.603Z,95429.98
2018-06-20T05:37:50.396Z,95433.91
2018-06-20T05:40:19.171Z,95430.68
2018-06-20T05:42:47.921Z,95428.77
2018-06-20T05:45:16.793Z,95435.70
2018-06-20T05:47:45.606Z,95440.90
2018-06-20T05:50:14.421Z,95439.34
2018-06-20T05:52:43.196Z,95444.65
2018-06-20T05:55:12.047Z,95436.32
2018-06-20T05:57:40.821Z,95431.22
2018-06-20T06:00:09.587Z,95423.80
2018-06-20T06:02:38.369Z,95434.73
2018-06-20T06:05:07.360Z,95436.83
2018-06-20T06:07:39.001Z,95447.09
2018-06-20T06:10:11.872Z,95446.30
2018-06-20T06:12:40.638Z,95446.29
2018-06-20T06:15:09.449Z,95447.07
2018-06-20T06:17:38.233Z,95450.06
2018-06-20T06:20:07.599Z,95451.89
2018-06-20T06:22:36.402Z,95444.13
2018-06-20T06:25:05.221Z,95448.41
2018-06-20T06:27:34.503Z,95452.73
2018-06-20T06:30:04.897Z,95455.41
2018-06-20T06:32:33.664Z,95456.47
2018-06-20T06:35:02.435Z,95455.40
2018-06-20T06:37:31.191Z,95449.23
2018-06-20T06:39:59.906Z,95451.37
2018-06-20T06:42:28.732Z,95458.34
2018-06-20T06:44:57.500Z,95455.66
2018-06-20T06:47:26.286Z,95453.52
2018-06-20T06:49:55.104Z,95449.75
2018-06-20T06:52:24.048Z,95455.14
2018-06-20T06:54:52.790Z,95450.84
2018-06-20T06:57:21.587Z,95447.91
2018-06-20T06:59:50.334Z,95455.66
2018-06-20T07:02:19.101Z,95453.81
2018-06-20T07:04:48.091Z,95449.49
2018-06-20T07:07:16.802Z,95448.45
2018-06-20T07:09:45.730Z,95449.50
2018-06-20T07:12:14.494Z,95448.95
2018-06-20T07:14:43.236Z,95447.05
2018-06-20T07:17:12.006Z,95444.91
2018-06-20T07:19:41.035Z,95447.60
2018-06-20T07:22:09.795Z,95450.02
2018-06-20T07:24:38.715Z,95452.70
2018-06-20T07:27:08.032Z,95446.77
2018-06-20T07:29:36.878Z,95445.97
2018-06-20T07:32:05.707Z,95442.75
2018-06-20T07:34:34.553Z,95438.47
2018-06-20T07:37:03.526Z,95439.83
2018-06-20T07:39:32.302Z,95445.98
2018-06-20T07:42:01.158Z,95445.19
2018-06-20T07:44:29.922Z,95445.19
2018-06-20T07:46:58.687Z,95443.84
2018-06-20T07:49:27.492Z,95435.83
2018-06-20T07:51:56.267Z,95434.48
2018-06-20T07:54:25.020Z,95438.80
2018-06-20T07:56:53.823Z,95435.02
2018-06-20T07:59:22.664Z,95433.69
2018-06-20T08:02:07.939Z,95440.42
2018-06-20T08:04:41.919Z,95440.68
2018-06-20T08:07:15.917Z,95436.64
2018-06-20T08:09:49.878Z,95432.34
2018-06-20T08:12:23.820Z,95437.39
2018-06-20T08:14:57.971Z,95430.66
2018-06-20T08:17:31.983Z,95429.86
2018-06-20T08:20:02.015Z,95432.54
2018-06-20T08:22:30.767Z,95427.95
2018-06-20T08:25:04.002Z,95424.46
2018-06-20T08:27:33.683Z,95427.14
2018-06-20T08:30:04.561Z,95421.52
2018-06-20T08:32:34.137Z,95419.91
2018-06-20T08:35:03.246Z,95422.28
2018-06-20T08:37:32.348Z,95416.33
2018-06-20T08:40:01.718Z,95417.36
2018-06-20T08:42:30.516Z,95405.50
2018-06-20T08:44:59.415Z,95402.77
2018-06-20T08:47:28.154Z,95399.77
2018-06-20T08:49:56.925Z,95397.03
2018-06-20T08:52:26.003Z,95403.70
2018-06-20T08:54:54.802Z,95407.78
2018-06-20T08:57:23.774Z,95403.47
2018-06-20T08:59:52.543Z,95401.09
2018-06-20T09:02:21.300Z,95396.59
2018-06-20T09:04:55.171Z,95402.06
2018-06-20T09:07:29.985Z,95391.87
2018-06-20T09:10:03.917Z,95394.49
2018-06-20T09:13:41.400Z,95395.84
2018-06-20T09:16:15.448Z,95392.41
2018-06-20T09:18:49.362Z,95390.16
2018-06-20T09:21:18.118Z,95393.15
2018-06-20T09:23:46.877Z,95398.66
2018-06-20T09:26:15.662Z,95392.75
2018-06-20T09:28:44.434Z,95386.02
2018-06-20T09:31:13.185Z,95384.91
2018-06-20T09:33:42.049Z,95377.41
2018-06-20T09:36:11.966Z,95385.13
2018-06-20T09:38:40.788Z,95378.08
2018-06-20T09:41:09.723Z,95372.02
2018-06-20T09:43:38.527Z,95370.17
2018-06-20T09:46:07.596Z,95372.58
2018-06-20T09:48:36.421Z,95362.55
2018-06-20T09:51:05.160Z,95368.27
2018-06-20T09:53:33.931Z,95359.28
2018-06-20T09:56:02.671Z,95373.54
2018-06-20T09:58:31.428Z,95370.06
2018-06-20T10:01:05.487Z,95369.34
2018-06-20T10:03:39.389Z,95363.08
2018-06-20T10:06:13.542Z,95356.65
2018-06-20T10:08:47.546Z,95360.77
2018-06-20T10:11:21.544Z,95355.20
2018-06-20T10:13:53.448Z,95349.38
2018-06-20T10:16:22.264Z,95359.67
2018-06-20T10:18:51.679Z,95357.49
2018-06-20T10:21:20.539Z,95361.09
2018-06-20T10:23:49.410Z,95362.20
2018-06-20T10:26:18.178Z,95355.69
2018-06-20T10:28:46.986Z,95356.20
2018-06-20T10:31:15.767Z,95360.38
2018-06-20T10:33:44.700Z,95352.98
2018-06-20T10:36:13.480Z,95349.86
2018-06-20T10:38:42.263Z,95346.63
2018-06-20T10:41:10.983Z,95346.80
2018-06-20T10:43:39.787Z,95350.48
2018-06-20T10:46:13.817Z,95339.73
2018-06-20T10:48:42.739Z,95334.98
2018-06-20T10:51:11.486Z,95341.92
2018-06-20T10:53:40.223Z,95357.46
2018-06-20T10:56:09.382Z,95349.29
2018-06-20T10:58:43.204Z,95340.66
2018-06-20T11:01:17.147Z,95332.80
2018-06-20T11:04:48.829Z,95326.88
2018-06-20T11:07:22.712Z,95324.34
2018-06-20T11:09:56.659Z,95341.03
2018-06-20T11:12:30.561Z,95332.52
2018-06-20T11:14:59.334Z,95324.44
2018-06-20T11:17:28.125Z,95322.59
2018-06-20T11:20:00.250Z,95321.48
2018-06-20T11:22:29.154Z,95326.09
2018-06-20T11:24:57.933Z,95327.13
2018-06-20T11:27:26.692Z,95318.07
2018-06-20T11:29:55.442Z,95324.30
2018-06-20T11:32:24.321Z,95327.91
2018-06-20T11:34:53.106Z,95311.25
2018-06-20T11:37:22.152Z,95323.45
2018-06-20T11:39:50.992Z,95319.84
2018-06-20T11:42:19.715Z,95318.05
2018-06-20T11:44:48.525Z,95319.95
2018-06-20T11:47:22.509Z,95324.81
2018-06-20T11:49:51.262Z,95319.04
2018-06-20T11:52:25.395Z,95320.55
2018-06-20T11:58:35.470Z,95309.95
2018-06-20T12:01:09.499Z,95306.63
2018-06-20T12:04:44.178Z,95303.44
2018-06-20T12:07:18.177Z,95323.36
2018-06-20T12:09:52.134Z,95302.09
2018-06-20T12:13:24.793Z,95312.64
2018-06-20T12:15:58.777Z,95309.12
2018-06-20T12:18:32.790Z,95305.13
2018-06-20T12:21:06.750Z,95307.72
2018-06-20T12:23:40.770Z,95306.50
2018-06-20T12:26:14.627Z,95306.97
2018-06-20T12:28:48.455Z,95305.86
2018-06-20T12:31:22.486Z,95304.84
2018-06-20T12:33:56.394Z,95307.05
2018-06-20T12:36:30.207Z,95293.10
2018-06-20T12:39:01.060Z,95294.00
2018-06-20T12:41:37.588Z,95287.54
2018-06-20T12:44:11.719Z,95290.48
2018-06-20T12:47:46.560Z,95293.56
2018-06-20T12:50:19.445Z,95291.00
2018-06-20T12:52:48.299Z,95292.81
2018-06-20T12:55:17.127Z,95280.81
2018-06-20T12:57:46.026Z,95284.45
2018-06-20T13:00:15.271Z,95287.06
2018-06-20T13:02:44.379Z,95282.00
2018-06-20T13:05:13.179Z,95280.44
2018-06-20T13:07:42.316Z,95280.85
2018-06-20T13:10:11.083Z,95277.05
2018-06-20T13:12:39.807Z,95277.56
2018-06-20T13:15:08.582Z,95274.64
2018-06-20T13:17:38.147Z,95274.00
2018-06-20T13:20:06.972Z,95267.95
2018-06-20T13:22:35.911Z,95267.25
2018-06-20T13:25:04.904Z,95279.05
2018-06-20T13:27:38.915Z,95271.28
2018-06-20T13:30:10.980Z,95269.30
2018-06-20T13:32:44.906Z,95258.52
2018-06-20T13:35:18.846Z,95264.64
2018-06-20T13:37:52.713Z,95259.46
2018-06-20T13:40:26.696Z,95263.78
2018-06-20T13:43:00.591Z,95266.13
2018-06-20T13:45:34.484Z,95256.05
2018-06-20T13:48:08.460Z,95255.28
2018-06-20T13:50:37.231Z,95252.63
2018-06-20T13:53:05.983Z,95250.19
2018-06-20T13:55:34.968Z,95249.41
2018-06-20T13:58:03.786Z,95257.37
2018-06-20T14:00:32.591Z,95252.40
2018-06-20T14:03:01.322Z,95243.13
2018-06-20T14:05:30.082Z,95244.48
2018-06-20T14:07:58.853Z,95242.84
2018-06-20T14:10:28.184Z,95230.93
2018-06-20T14:12:56.975Z,95244.54
2018-06-20T14:15:25.762Z,95248.13
2018-06-20T14:17:54.908Z,95238.95
2018-06-20T14:20:28.982Z,95239.21
2018-06-20T14:22:57.798Z,95246.78
2018-06-20T14:25:26.541Z,95240.05
2018-06-20T14:27:55.312Z,95243.41
2018-06-20T14:30:29.890Z,95241.22
2018-06-20T14:33:03.841Z,95234.66
2018-06-20T14:35:37.785Z,95247.13
2018-06-20T14:38:11.834Z,95237.38
2018-06-20T14:40:45.971Z,95228.97
2018-06-20T14:43:20.030Z,95228.77
2018-06-20T14:45:53.898Z,95221.83
2018-06-20T14:48:22.709Z,95221.45
2018-06-20T14:50:51.476Z,95222.70
2018-06-20T14:53:20.367Z,95219.21
2018-06-20T14:55:49.705Z,95222.45
2018-06-20T14:58:18.450Z,95216.91
2018-06-20T15:00:47.255Z,95216.64
2018-06-20T15:03:16.236Z,95205.36
2018-06-20T15:05:44.994Z,95208.16
2018-06-20T15:08:13.849Z,95202.55
2018-06-20T15:10:42.608Z,95204.44
2018-06-20T15:13:17.890Z,95199.66
2018-06-20T15:15:46.683Z,95201.52
2018-06-20T15:18:15.683Z,95195.90
2018-06-20T15:20:44.624Z,95195.35
2018-06-20T15:23:13.449Z,95192.55
2018-06-20T15:25:46.331Z,95198.45
2018-06-20T15:28:20.379Z,95205.58
2018-06-20T15:30:54.407Z,95200.34
2018-06-20T15:33:28.334Z,95196.87
2018-06-20T15:36:02.391Z,95190.32
2018-06-20T15:38:31.174Z,95203.77
2018-06-20T15:41:00.280Z,95197.93
2018-06-20T15:43:29.050Z,95200.34
2018-06-20T15:45:57.816Z,95195.09
2018-06-20T15:48:26.631Z,95192.61
2018-06-20T15:50:55.458Z,95191.01
2018-06-20T15:53:24.253Z,95193.04
2018-06-20T15:55:52.975Z,95193.87
2018-06-20T15:58:21.786Z,95193.58
2018-06-20T16:00:50.885Z,95193.70
2018-06-20T16:03:20.046Z,95191.44
2018-06-20T16:05:48.893Z,95192.78
2018-06-20T16:08:17.756Z,95195.53
2018-06-20T16:10:46.578Z,95200.85
2018-06-20T16:13:15.571Z,95201.17
2018-06-20T16:15:44.349Z,95193.33
2018-06-20T16:18:13.090Z,95205.12
2018-06-20T16:20:47.718Z,95196.96
2018-06-20T16:23:21.802Z,95201.57
2018-06-20T16:26:54.468Z,95205.61
2018-06-20T16:29:28.416Z,95207.30
2018-06-20T16:31:57.226Z,95210.38
2018-06-20T16:34:26.022Z,95210.20
2018-06-20T16:36:54.810Z,95212.80
2018-06-20T16:39:23.547Z,95219.91
2018-06-20T16:41:52.316Z,95216.48
2018-06-20T16:44:21.106Z,95213.25
2018-06-20T16:46:50.019Z,95217.83
2018-06-20T16:49:18.832Z,95215.50
2018-06-20T16:51:48.171Z,95219.91
2018-06-20T16:54:16.891Z,95223.64
2018-06-20T16:56:45.676Z,95219.08
2018-06-20T16:59:14.614Z,95227.05
2018-06-20T17:01:48.679Z,95224.25
2018-06-20T17:04:17.848Z,95227.00
2018-06-20T17:06:46.670Z,95226.98
2018-06-20T17:09:15.434Z,95228.28
2018-06-20T17:11:48.340Z,95224.53
2018-06-20T17:14:22.303Z,95215.70
2018-06-20T17:16:56.062Z,95221.56
2018-06-20T17:19:29.983Z,95223.11
2018-06-20T17:22:03.889Z,95224.73
2018-06-20T17:24:37.832Z,95222.42
2018-06-20T17:27:06.769Z,95224.92
2018-06-20T17:29:35.648Z,95227.69
2018-06-20T17:32:04.445Z,95238.72
2018-06-20T17:34:33.273Z,95239.39
2018-06-20T17:37:02.059Z,95244.02
2018-06-20T17:39:30.782Z,95242.98
2018-06-20T17:41:59.580Z,95244.64
2018-06-20T17:44:28.327Z,95257.28
2018-06-20T17:46:57.135Z,95253.87
2018-06-20T17:49:25.889Z,95248.00
2018-06-20T17:51:54.626Z,95255.61
2018-06-20T17:54:23.368Z,95254.61
2018-06-20T17:56:52.540Z,95246.35
2018-06-20T17:59:21.294Z,95252.27
2018-06-20T18:01:50.206Z,95250.94
2018-06-20T18:05:22.762Z,95255.50
2018-06-20T18:07:56.782Z,95258.52
2018-06-20T18:10:30.855Z,95262.59
2018-06-20T18:13:04.284Z,95257.25
2018-06-20T18:15:38.638Z,95259.98
2018-06-20T18:18:07.800Z,95261.07
2018-06-20T18:20:37.818Z,95267.54
2018-06-20T18:23:07.671Z,95262.17
2018-06-20T18:25:36.443Z,95266.44
2018-06-20T18:28:05.222Z,95275.30
2018-06-20T18:30:34.215Z,95276.69
2018-06-20T18:33:03.078Z,95279.64
2018-06-20T18:35:31.834Z,95271.34
2018-06-20T18:38:01.543Z,95278.05
2018-06-20T18:40:30.335Z,95280.18
2018-06-20T18:42:59.121Z,95289.04
2018-06-20T18:45:28.362Z,95285.05
2018-06-20T18:48:02.383Z,95285.33
2018-06-20T18:50:31.151Z,95294.75
2018-06-20T18:52:59.943Z,95296.13
2018-06-20T18:55:28.889Z,95297.20
2018-06-20T18:58:02.876Z,95296.94
2018-06-20T19:00:36.881Z,95306.36
2018-06-20T19:03:11.004Z,95300.19
2018-06-20T19:05:45.110Z,95299.69
2018-06-20T19:08:19.144Z,95306.68
2018-06-20T19:10:48.606Z,95308.03
2018-06-20T19:13:17.450Z,95317.14
2018-06-20T19:15:46.435Z,95313.94
2018-06-20T19:18:16.123Z,95317.17
2018-06-20T19:20:44.909Z,95321.98
2018-06-20T19:23:13.789Z,95320.38
2018-06-20T19:25:42.573Z,95324.94
2018-06-20T19:28:11.321Z,95320.39
2018-06-20T19:30:40.079Z,95320.61
2018-06-20T19:33:08.925Z,95321.43
2018-06-20T19:35:37.932Z,95321.95
2018-06-20T19:38:07.022Z,95321.69
2018-06-20T19:40:35.717Z,95328.36
2018-06-20T19:43:04.500Z,95318.73
2018-06-20T19:45:33.310Z,95321.94
2018-06-20T19:48:02.060Z,95326.98
2018-06-20T19:50:30.824Z,95326.70
2018-06-20T19:52:59.954Z,95325.37
2018-06-20T19:55:28.714Z,95324.55
2018-06-20T19:57:57.489Z,95319.98
2018-06-20T20:00:26.235Z,95321.28
2018-06-20T20:02:54.986Z,95316.97
2018-06-20T20:05:23.750Z,95321.49
2018-06-20T20:07:52.478Z,95322.83
2018-06-20T20:10:21.236Z,95323.09
2018-06-20T20:12:50.128Z,95326.29
2018-06-20T20:15:19.130Z,95323.34
2018-06-20T20:17:48.354Z,95326.55
2018-06-20T20:20:17.212Z,95332.97
2018-06-20T20:22:45.927Z,95328.16
2018-06-20T20:25:16.370Z,95325.50
2018-06-20T20:27:45.122Z,95329.23
2018-06-20T20:30:13.970Z,95332.42
2018-06-20T20:32:42.758Z,95331.91
2018-06-20T20:35:11.578Z,95333.21
2018-06-20T20:37:40.317Z,95332.37
2018-06-20T20:40:09.062Z,95329.67
2018-06-20T20:42:38.806Z,95329.37
2018-06-20T20:45:07.579Z,95328.03
2018-06-20T20:47:36.346Z,95329.08
2018-06-20T20:50:05.142Z,95334.13
2018-06-20T20:52:33.882Z,95336.28
2018-06-20T20:55:02.615Z,95337.83
2018-06-20T20:57:31.953Z,95331.91
2018-06-20T21:00:07.175Z,95324.67
2018-06-20T21:02:35.959Z,95324.67
2018-06-20T21:05:04.821Z,95322.80
2018-06-20T21:07:33.580Z,95325.22
2018-06-20T21:10:02.376Z,95326.25
2018-06-20T21:12:31.194Z,95322.52
2018-06-20T21:14:59.943Z,95327.30
2018-06-20T21:17:28.727Z,95324.30
2018-06-20T21:19:57.521Z,95321.34
2018-06-20T21:22:26.567Z,95315.22
2018-06-20T21:24:55.350Z,95313.87
2018-06-20T21:27:24.144Z,95309.59
2018-06-20T21:29:53.043Z,95312.77
2018-06-20T21:32:21.987Z,95312.25
2018-06-20T21:34:51.126Z,95313.58
2018-06-20T21:37:20.498Z,95311.16
2018-06-20T21:39:49.289Z,95310.84
2018-06-20T21:42:18.067Z,95315.88
2018-06-20T21:44:46.795Z,95308.95
2018-06-20T21:47:15.526Z,95308.09
2018-06-20T21:49:44.294Z,95308.38
2018-06-20T21:52:13.055Z,95306.43
2018-06-20T21:54:41.787Z,95301.65
2018-06-20T21:57:10.591Z,95302.70
2018-06-20T21:59:39.527Z,95303.77
2018-06-20T22:02:08.330Z,95294.95
2018-06-20T22:04:37.102Z,95298.42
2018-06-20T22:07:05.861Z,95299.15
2018-06-20T22:09:34.592Z,95298.04
2018-06-20T22:12:03.352Z,95295.34
2018-06-20T22:14:32.100Z,95295.03
2018-06-20T22:17:00.907Z,95297.67
2018-06-20T22:19:29.662Z,95303.01
2018-06-20T22:21:58.432Z,95302.95
2018-06-20T22:24:27.134Z,95303.72
2018-06-20T22:26:55.868Z,95300.25
2018-06-20T22:29:24.644Z,95305.05
2018-06-20T22:31:53.403Z,95302.05
2018-06-20T22:34:22.141Z,95300.22
2018-06-20T22:36:50.918Z,95294.66
2018-06-20T22:39:19.732Z,95301.15
2018-06-20T22:41:48.464Z,95307.72
2018-06-20T22:44:17.266Z,95309.33
2018-06-20T22:46:46.139Z,95308.78
2018-06-20T22:49:14.875Z,95312.22
2018-06-20T22:51:43.605Z,95311.63
2018-06-20T22:54:12.434Z,95312.68
2018-06-20T22:56:42.263Z,95312.16
2018-06-20T22:59:11.184Z,95306.54
2018-06-20T23:01:39.924Z,95306.82
2018-06-20T23:04:08.733Z,95308.44
2018-06-20T23:06:37.467Z,95305.73
2018-06-20T23:09:08.650Z,95308.09
2018-06-20T23:11:42.649Z,95304.55
2018-06-20T23:14:11.432Z,95305.00
2018-06-20T23:16:40.410Z,95306.27
2018-06-20T23:19:09.659Z,95302.44
2018-06-20T23:21:38.428Z,95298.67
2018-06-20T23:24:07.262Z,95307.48
2018-06-20T23:26:36.050Z,95298.61
2018-06-20T23:29:04.825Z,95291.30
2018-06-20T23:31:33.592Z,95287.30
2018-06-20T23:34:02.396Z,95279.31
2018-06-20T23:36:31.109Z,95275.59
2018-06-20T23:38:59.839Z,95281.17
2018-06-20T23:41:28.586Z,95269.14
2018-06-20T23:43:57.323Z,95278.19
2018-06-20T23:46:26.120Z,95275.52
2018-06-20T23:48:54.887Z,95273.91
2018-06-20T23:51:23.673Z,95271.80
2018-06-20T23:53:52.478Z,95267.25
2018-06-20T23:56:21.178Z,95273.42
2018-06-20T23:58:49.909Z,95269.17
